Time;durP1;ratioP1;P1;durP2;ratioP2;P2;SDS_P1;SDS_P2;PMS_P1;PMS_P2;Temp;Humidity;BMP_temperature;BMP_pressure;BME280_temperature;BME280_humidity;BME280_pressure;Samples;Min_cycle;Max_cycle;Signal;HPM_P1;HPM_P2
2021/03/15 00:01:04;;;;;;;65.80;30.33;;;;;;;2.90;91.37;98597.50;3554528;27;20083;-50
2021/03/15 00:02:47;;;;;;;68.65;29.88;;;;;;;2.91;91.80;98599.25;3552022;27;20050;-56
2021/03/15 00:04:29;;;;;;;63.67;28.88;;;;;;;2.91;91.50;98599.25;3552025;27;20047;-56
2021/03/15 00:06:10;;;;;;;60.42;28.17;;;;;;;2.89;91.67;98594.06;3553005;27;20095;-50
2021/03/15 00:07:52;;;;;;;66.43;29.33;;;;;;;2.92;91.74;98600.97;3550908;27;20070;-53
2021/03/15 00:09:33;;;;;;;63.33;29.35;;;;;;;2.93;91.66;98602.72;3554049;27;20058;-50
2021/03/15 00:11:14;;;;;;;62.13;28.00;;;;;;;2.93;91.98;98604.41;3550965;27;20509;-55
2021/03/15 00:12:56;;;;;;;54.42;24.55;;;;;;;2.93;91.67;98599.28;3553999;27;20051;-54
2021/03/15 00:14:37;;;;;;;53.10;25.27;;;;;;;2.93;91.85;98591.59;3549746;27;20050;-55
2021/03/15 00:16:19;;;;;;;50.80;25.50;;;;;;;2.93;91.88;98592.47;3553068;27;20057;-54
2021/03/15 00:18:01;;;;;;;53.65;25.58;;;;;;;2.93;91.76;98589.91;3554084;27;20058;-54
2021/03/15 00:19:42;;;;;;;54.80;25.55;;;;;;;2.93;91.73;98597.59;3552668;27;20061;-55
2021/03/15 00:21:24;;;;;;;55.40;25.92;;;;;;;2.93;91.82;98596.72;3554163;27;20050;-54
2021/03/15 00:23:06;;;;;;;49.67;24.92;;;;;;;2.94;91.91;98595.88;3550734;27;20047;-55
2021/03/15 00:24:47;;;;;;;55.05;26.33;;;;;;;2.95;91.63;98593.38;3554332;27;20073;-52
2021/03/15 00:26:28;;;;;;;59.55;26.13;;;;;;;2.96;91.70;98599.34;3549686;27;20070;-49
2021/03/15 00:28:10;;;;;;;53.97;25.45;;;;;;;2.97;91.98;98595.97;3552157;27;20046;-49
2021/03/15 00:29:51;;;;;;;58.38;26.70;;;;;;;2.97;91.73;98599.38;3551746;27;20431;-50
2021/03/15 00:31:33;;;;;;;59.03;26.00;;;;;;;2.99;91.81;98602.00;3552564;27;20042;-53
2021/03/15 00:33:15;;;;;;;52.08;26.15;;;;;;;2.98;91.57;98606.25;3539643;28;20086;-50
2021/03/15 00:34:56;;;;;;;52.45;26.20;;;;;;;2.99;91.85;98599.44;3549401;27;20047;-51
2021/03/15 00:36:37;;;;;;;61.38;27.10;;;;;;;3.00;91.69;98603.75;3554159;27;20062;-50
2021/03/15 00:38:19;;;;;;;56.40;26.67;;;;;;;3.00;91.92;98607.16;3550189;27;20114;-50
2021/03/15 00:40:00;;;;;;;55.75;27.02;;;;;;;3.01;91.72;98606.34;3551803;27;20415;-50
2021/03/15 00:41:42;;;;;;;55.08;27.05;;;;;;;3.01;91.57;98606.34;3552459;27;20058;-50
2021/03/15 00:43:23;;;;;;;52.17;26.58;;;;;;;3.01;91.70;98608.91;3551071;27;20107;-54
2021/03/15 00:45:06;;;;;;;55.65;27.02;;;;;;;3.01;91.79;98598.66;3553644;27;20042;-54
2021/03/15 00:46:48;;;;;;;53.13;26.05;;;;;;;3.01;91.86;98596.09;3550347;27;20049;-54
2021/03/15 00:48:29;;;;;;;58.90;28.35;;;;;;;3.00;91.91;98594.34;3553923;27;20115;-55
2021/03/15 00:50:16;;;;;;;59.13;27.23;;;;;;;2.99;91.83;98605.41;3550271;27;20042;-56
2021/03/15 00:51:58;;;;;;;57.72;28.58;;;;;;;2.99;91.69;98610.53;3551543;27;20099;-50
2021/03/15 00:53:40;;;;;;;58.25;29.08;;;;;;;2.98;92.02;98608.81;3552902;27;20054;-50
2021/03/15 00:55:21;;;;;;;61.78;29.20;;;;;;;2.98;91.95;98605.41;3552412;27;20054;-49
2021/03/15 00:57:03;;;;;;;57.70;27.10;;;;;;;2.96;91.83;98602.78;3553684;27;20131;-49
2021/03/15 00:58:44;;;;;;;57.70;28.63;;;;;;;2.97;91.73;98603.66;3549902;27;20423;-50
2021/03/15 01:00:28;;;;;;;62.83;27.85;;;;;;;2.96;91.79;98607.91;3553126;27;20085;-49
2021/03/15 01:02:10;;;;;;;64.68;30.02;;;;;;;2.97;91.93;98601.09;3550547;27;20050;-51
2021/03/15 01:03:51;;;;;;;62.50;28.48;;;;;;;2.97;91.94;98593.41;3551730;27;20051;-52
2021/03/15 01:05:42;;;;;;;58.78;26.73;;;;;;;2.97;91.74;98590.84;3552281;27;20214;-52
2021/03/15 01:07:24;;;;;;;60.85;29.10;;;;;;;2.96;92.10;98587.44;3550174;27;20487;-55
2021/03/15 01:09:06;;;;;;;57.58;27.10;;;;;;;2.98;92.13;98590.03;3553491;27;20479;-55
2021/03/15 01:10:48;;;;;;;60.67;28.67;;;;;;;2.97;92.10;98581.47;3550145;27;20050;-56
2021/03/15 01:12:29;;;;;;;66.80;30.52;;;;;;;2.97;92.25;98576.34;3552318;27;20423;-56
2021/03/15 01:14:12;;;;;;;59.03;29.05;;;;;;;2.98;92.31;98577.22;3550079;27;20060;-54
2021/03/15 01:15:53;;;;;;;67.85;31.15;;;;;;;2.98;92.34;98583.22;3549892;27;20434;-55
2021/03/15 01:17:35;;;;;;;65.07;27.27;;;;;;;3.00;92.01;98573.00;3553405;27;20555;-55
2021/03/15 01:19:16;;;;;;;63.42;28.83;;;;;;;2.98;92.14;98567.84;3549771;27;20057;-56
2021/03/15 01:20:58;;;;;;;66.32;30.65;;;;;;;2.98;92.44;98572.09;3552888;27;20047;-55
2021/03/15 01:22:39;;;;;;;62.65;28.98;;;;;;;2.99;92.07;98573.81;3550392;27;20159;-55
2021/03/15 01:24:22;;;;;;;71.78;31.73;;;;;;;2.99;92.21;98569.56;3552359;27;20124;-56
2021/03/15 01:26:03;;;;;;;66.47;29.92;;;;;;;2.99;92.53;98564.44;3552971;27;20430;-55
2021/03/15 01:27:44;;;;;;;65.53;28.65;;;;;;;2.99;92.48;98559.31;3552086;27;20423;-56
2021/03/15 01:29:26;;;;;;;59.25;27.38;;;;;;;2.98;92.42;98565.28;3553289;27;20103;-55
2021/03/15 01:31:07;;;;;;;70.53;30.55;;;;;;;2.98;92.25;98560.16;3549709;27;20042;-54
2021/03/15 01:32:49;;;;;;;71.78;32.13;;;;;;;2.98;92.14;98567.84;3552753;27;20518;-55
2021/03/15 01:34:30;;;;;;;70.30;31.10;;;;;;;2.99;92.59;98561.00;3552695;27;20073;-54
2021/03/15 01:36:18;;;;;;;70.75;31.13;;;;;;;3.00;92.21;98561.06;3549937;27;20047;-54
2021/03/15 01:38:00;;;;;;;68.72;30.90;;;;;;;3.00;92.37;98555.06;3553319;27;20085;-54
2021/03/15 01:39:42;;;;;;;70.63;32.67;;;;;;;3.00;92.33;98560.19;3549951;27;20051;-50
2021/03/15 01:41:23;;;;;;;74.60;31.60;;;;;;;3.01;92.60;98564.47;3553409;27;20100;-55
2021/03/15 01:43:05;;;;;;;70.45;30.77;;;;;;;3.01;92.27;98567.91;3549747;27;20140;-55
2021/03/15 01:44:47;;;;;;;64.50;30.15;;;;;;;3.02;92.35;98567.06;3552956;27;20065;-56
2021/03/15 01:46:28;;;;;;;68.95;30.95;;;;;;;3.02;92.32;98569.63;3550234;27;20073;-53
2021/03/15 01:48:12;;;;;;;74.10;30.42;;;;;;;3.01;92.28;98570.47;3550873;27;20582;-55
2021/03/15 01:49:53;;;;;;;69.57;32.17;;;;;;;3.01;92.55;98565.38;3551333;27;20062;-56
2021/03/15 01:51:36;;;;;;;66.30;30.35;;;;;;;3.00;92.58;98563.63;3549412;27;20058;-55
2021/03/15 01:53:20;;;;;;;66.97;30.50;;;;;;;3.01;92.72;98567.03;3553230;27;20522;-50
2021/03/15 01:55:03;;;;;;;71.50;30.55;;;;;;;3.02;92.42;98569.63;3550594;27;20061;-51
2021/03/15 01:56:46;;;;;;;74.25;31.35;;;;;;;3.01;92.56;98570.47;3551850;27;20078;-50
2021/03/15 01:58:27;;;;;;;70.70;30.85;;;;;;;2.98;92.49;98574.66;3552325;27;20047;-50
2021/03/15 02:00:11;;;;;;;74.13;31.58;;;;;;;2.98;92.45;98575.53;3550691;27;20051;-51
2021/03/15 02:01:52;;;;;;;67.22;29.58;;;;;;;2.99;92.74;98577.22;3552259;27;20051;-49
2021/03/15 02:03:34;;;;;;;73.07;32.72;;;;;;;2.98;92.76;98578.09;3549167;27;20088;-50
2021/03/15 02:05:16;;;;;;;71.97;31.63;;;;;;;2.98;92.87;98580.66;3553135;27;20049;-50
2021/03/15 02:06:57;;;;;;;76.15;31.95;;;;;;;2.98;92.90;98584.91;3550707;27;20201;-52
2021/03/15 02:08:38;;;;;;;74.60;32.10;;;;;;;2.98;92.91;98582.34;3551160;27;20054;-51
2021/03/15 02:10:21;;;;;;;77.55;33.45;;;;;;;2.97;92.92;98586.59;3549535;27;20434;-49
2021/03/15 02:12:15;;;;;;;74.00;32.40;;;;;;;2.96;92.70;98587.44;3550382;27;20051;-49
2021/03/15 02:14:20;;;;;;;79.57;33.65;;;;;;;2.96;92.73;98586.53;3545775;27;20042;-52
2021/03/15 02:16:06;;;;;;;75.20;32.15;;;;;;;2.96;92.59;98590.00;3549939;27;20503;-52
2021/03/15 02:17:55;;;;;;;77.32;35.10;;;;;;;2.95;92.91;98593.38;3550797;27;20054;-50
2021/03/15 02:20:22;;;;;;;72.72;32.95;;;;;;;2.95;92.81;98597.63;3551453;27;20511;-49
2021/03/15 02:22:20;;;;;;;75.45;32.20;;;;;;;2.95;93.20;98598.50;3549804;27;20051;-50
2021/03/15 02:24:09;;;;;;;71.15;32.50;;;;;;;2.96;93.25;98607.03;3549257;27;20047;-51
2021/03/15 02:26:30;;;;;;;75.32;33.88;;;;;;;2.96;93.07;98599.34;3538679;28;20066;-49
2021/03/15 02:28:30;;;;;;;79.45;34.10;;;;;;;2.96;93.29;98602.78;3516102;27;20051;-55
2021/03/15 02:30:28;;;;;;;71.78;31.83;;;;;;;2.96;92.98;98596.78;3551418;27;20078;-55
2021/03/15 02:32:41;;;;;;;83.00;34.00;;;;;;;2.97;93.02;98589.13;3552319;27;20650;-51
2021/03/15 02:34:54;;;;;;;73.15;30.17;;;;;;;2.97;92.86;98589.13;3551745;27;20043;-49
2021/03/15 02:36:40;;;;;;;85.68;33.33;;;;;;;2.97;93.07;98589.13;3541432;27;20090;-50
2021/03/15 02:38:25;;;;;;;97.10;37.50;;;;;;;2.99;93.61;98592.59;3550739;27;20085;-49
2021/03/15 02:40:09;;;;;;;93.25;36.03;;;;;;;3.02;93.65;98589.28;3551048;27;20088;-53
2021/03/15 02:41:55;;;;;;;93.30;37.38;;;;;;;3.03;93.33;98585.88;3548929;27;20085;-50
2021/03/15 02:43:42;;;;;;;88.63;34.63;;;;;;;3.04;93.43;98590.19;3552861;27;20047;-50
2021/03/15 02:45:25;;;;;;;89.88;35.20;;;;;;;3.04;93.38;98577.38;3550078;27;20038;-50
2021/03/15 02:47:11;;;;;;;101.22;37.22;;;;;;;3.03;93.55;98576.50;3551560;27;20093;-50
2021/03/15 02:48:56;;;;;;;88.03;33.42;;;;;;;3.03;93.62;98583.31;3550591;27;20423;-49
2021/03/15 02:50:41;;;;;;;103.88;37.33;;;;;;;3.02;93.57;98582.44;3549699;27;20456;-49
2021/03/15 02:52:24;;;;;;;102.88;37.50;;;;;;;3.03;93.46;98575.63;3552370;27;20090;-53
2021/03/15 02:54:07;;;;;;;101.43;37.65;;;;;;;3.03;94.00;98576.50;3549968;27;20149;-52
2021/03/15 02:55:51;;;;;;;112.55;40.13;;;;;;;3.04;93.78;98572.25;3552806;27;20046;-49
2021/03/15 02:57:35;;;;;;;97.25;38.17;;;;;;;3.04;94.02;98569.69;3548193;27;20050;-50
2021/03/15 02:59:18;;;;;;;97.53;37.80;;;;;;;3.02;94.04;98569.63;3550341;27;20123;-52
2021/03/15 03:01:02;;;;;;;105.75;37.28;;;;;;;3.03;94.28;98562.81;3551127;27;20085;-50
2021/03/15 03:02:44;;;;;;;105.28;38.08;;;;;;;3.04;94.40;98556.88;3549488;27;20043;-50
2021/03/15 03:04:28;;;;;;;101.00;37.95;;;;;;;3.04;93.94;98554.31;3552301;27;20551;-50
2021/03/15 03:06:11;;;;;;;108.45;37.00;;;;;;;3.04;94.47;98554.31;3549030;27;20062;-51
2021/03/15 03:07:55;;;;;;;105.88;37.80;;;;;;;3.03;94.17;98553.44;3550637;27;20047;-50
2021/03/15 03:09:37;;;;;;;;;;;;;;;3.03;94.30;98545.75;3552712;27;20094;-49
2021/03/15 03:11:20;;;;;;;89.25;32.42;;;;;;;3.03;94.06;98550.00;3548689;27;19972;-50
2021/03/15 03:13:02;;;;;;;115.30;39.10;;;;;;;3.03;94.51;98557.69;3550897;27;20050;-50
2021/03/15 03:14:46;;;;;;;107.20;39.05;;;;;;;3.01;94.20;98565.38;3548691;27;20359;-51
2021/03/15 03:16:33;;;;;;;101.78;37.90;;;;;;;2.98;94.53;98562.72;3551892;27;20057;-50
2021/03/15 03:18:17;;;;;;;109.80;38.35;;;;;;;2.97;94.36;98563.53;3549656;27;20396;-51
2021/03/15 03:20:02;;;;;;;111.25;39.25;;;;;;;2.96;94.46;98572.06;3549005;27;20095;-49
2021/03/15 03:21:47;;;;;;;123.97;41.17;;;;;;;2.95;94.63;98566.88;3552615;27;20085;-51
2021/03/15 03:23:31;;;;;;;111.43;39.20;;;;;;;2.93;94.57;98566.84;3551198;27;20042;-48
2021/03/15 03:25:16;;;;;;;111.00;39.20;;;;;;;2.93;94.69;98571.13;3554860;27;20046;-55
2021/03/15 03:26:59;;;;;;;115.28;39.63;;;;;;;2.92;94.72;98569.38;3550823;27;20053;-55
2021/03/15 03:28:41;;;;;;;123.60;40.58;;;;;;;2.91;94.68;98571.06;3552043;27;20567;-55
2021/03/15 03:30:26;;;;;;;110.47;40.05;;;;;;;2.88;94.88;98563.28;3554194;27;20042;-55
2021/03/15 03:32:08;;;;;;;105.63;39.60;;;;;;;2.89;94.81;98565.91;3553328;27;20046;-53
2021/03/15 03:33:50;;;;;;;121.57;41.00;;;;;;;2.89;94.83;98559.91;3554827;27;20047;-50
2021/03/15 03:35:32;;;;;;;111.70;39.58;;;;;;;2.88;94.96;98559.03;3553458;27;20101;-51
2021/03/15 03:37:13;;;;;;;103.05;35.05;;;;;;;2.88;94.76;98566.72;3553832;27;20090;-52
2021/03/15 03:38:55;;;;;;;119.57;39.58;;;;;;;2.88;95.05;98564.16;3553955;27;20415;-50
2021/03/15 03:40:37;;;;;;;129.90;42.53;;;;;;;2.89;94.91;98570.16;3551075;27;20043;-50
2021/03/15 03:42:20;;;;;;;123.93;41.28;;;;;;;2.90;94.92;98571.88;3554616;27;20055;-52
2021/03/15 03:44:02;;;;;;;114.75;37.13;;;;;;;2.90;95.06;98575.31;3552419;27;20046;-51
2021/03/15 03:45:43;;;;;;;125.47;40.45;;;;;;;2.92;95.11;98585.59;3554946;27;20050;-50
2021/03/15 03:47:25;;;;;;;123.68;43.78;;;;;;;2.93;95.27;98591.59;3551277;27;20047;-49
2021/03/15 03:49:08;;;;;;;122.70;43.55;;;;;;;2.93;95.26;98582.22;3552475;27;20595;-50
2021/03/15 03:50:49;;;;;;;124.13;41.08;;;;;;;2.95;95.64;98582.25;3554305;27;20054;-50
2021/03/15 03:52:33;;;;;;;127.57;42.60;;;;;;;2.95;95.31;98584.81;3551057;27;20047;-52
2021/03/15 03:54:18;;;;;;;137.80;42.25;;;;;;;2.93;95.60;98591.59;3554354;27;20111;-49
2021/03/15 03:56:05;;;;;;;141.15;42.05;;;;;;;2.94;95.48;98588.19;3550858;27;20051;-50
2021/03/15 03:57:47;;;;;;;132.85;42.55;;;;;;;2.93;95.81;98583.91;3553774;27;20047;-53
2021/03/15 03:59:31;;;;;;;134.68;44.80;;;;;;;2.93;95.53;98584.78;3551719;27;20039;-49
2021/03/15 04:01:13;;;;;;;122.18;42.33;;;;;;;2.92;95.53;98593.28;3552996;27;20073;-51
2021/03/15 04:03:03;;;;;;;136.00;44.60;;;;;;;2.92;95.50;98589.84;3553280;27;20078;-49
2021/03/15 04:04:47;;;;;;;141.90;44.67;;;;;;;2.89;95.64;98588.94;3550988;27;20050;-50
2021/03/15 04:06:31;;;;;;;138.70;45.42;;;;;;;2.88;95.91;98591.47;3554634;27;20043;-54
2021/03/15 04:08:25;;;;;;;148.10;45.58;;;;;;;2.87;95.87;98598.28;3551194;27;20427;-54
2021/03/15 04:10:08;;;;;;;147.65;44.70;;;;;;;2.85;95.71;98597.38;3550711;27;20078;-55
2021/03/15 04:11:50;;;;;;;123.15;38.90;;;;;;;2.86;96.04;98603.38;3554118;27;20476;-55
2021/03/15 04:13:34;;;;;;;139.02;43.33;;;;;;;2.83;95.61;98606.69;3551088;27;20039;-54
2021/03/15 04:15:18;;;;;;;111.05;37.83;;;;;;;2.83;95.90;98608.41;3568742;27;20042;-55
2021/03/15 04:17:01;;;;;;;157.90;45.15;;;;;;;2.82;95.78;98616.94;3552366;27;20057;-54
2021/03/15 04:18:47;;;;;;;139.57;46.10;;;;;;;2.81;95.77;98610.06;3552076;27;20043;-55
2021/03/15 04:20:32;;;;;;;161.27;49.10;;;;;;;2.80;95.92;98616.88;3551519;27;20047;-55
2021/03/15 04:22:15;;;;;;;150.75;46.22;;;;;;;2.80;95.82;98614.31;3550569;27;20046;-54
2021/03/15 04:24:00;;;;;;;169.93;51.65;;;;;;;2.81;96.10;98615.19;3554508;27;20050;-54
2021/03/15 04:25:44;;;;;;;158.95;47.38;;;;;;;2.79;95.98;98615.13;3550341;27;20111;-55
2021/03/15 04:27:27;;;;;;;174.77;47.08;;;;;;;2.77;96.19;98609.09;3553505;27;20130;-55
2021/03/15 04:29:09;;;;;;;171.68;49.50;;;;;;;2.78;96.34;98609.97;3551496;27;20047;-55
2021/03/15 04:30:51;;;;;;;169.23;49.05;;;;;;;2.77;96.17;98611.66;3551900;27;20047;-54
2021/03/15 04:32:33;;;;;;;174.23;49.38;;;;;;;2.77;96.08;98608.25;3552171;27;20056;-54
2021/03/15 04:34:16;;;;;;;180.65;52.13;;;;;;;2.77;96.51;98610.81;3550649;27;20062;-54
2021/03/15 04:35:58;;;;;;;188.30;50.85;;;;;;;2.78;96.60;98615.09;3554048;27;20491;-54
2021/03/15 04:37:40;;;;;;;157.85;46.03;;;;;;;2.78;96.65;98620.22;3551808;27;20081;-55
2021/03/15 04:39:22;;;;;;;209.30;50.88;;;;;;;2.78;96.69;98618.50;3552667;27;20065;-55
2021/03/15 04:41:04;;;;;;;173.50;50.05;;;;;;;2.78;96.71;98622.78;3551667;27;20458;-55
2021/03/15 04:42:47;;;;;;;192.98;50.88;;;;;;;2.79;96.57;98621.97;3552944;27;20049;-55
2021/03/15 04:44:29;;;;;;;174.18;50.97;;;;;;;2.80;96.73;98626.22;3552745;27;20054;-55
2021/03/15 04:46:11;;;;;;;189.25;51.03;;;;;;;2.81;96.59;98628.84;3550164;27;20082;-55
2021/03/15 04:47:53;;;;;;;199.63;51.63;;;;;;;2.81;96.96;98626.28;3554077;27;20107;-54
2021/03/15 04:49:37;;;;;;;199.30;50.55;;;;;;;2.81;96.94;98628.84;3552394;27;20133;-56
2021/03/15 04:51:19;;;;;;;164.60;48.63;;;;;;;2.82;96.58;98637.41;3551707;27;20543;-55
2021/03/15 04:53:02;;;;;;;171.52;48.60;;;;;;;2.84;96.97;98633.19;3554615;27;20534;-54
2021/03/15 04:54:45;;;;;;;175.00;50.95;;;;;;;2.84;96.67;98634.06;3551994;27;21155;-54
2021/03/15 04:56:28;;;;;;;160.70;45.33;;;;;;;2.85;97.04;98630.69;3553280;27;20046;-57
2021/03/15 04:58:12;;;;;;;180.05;52.35;;;;;;;2.86;96.98;98631.53;3550248;27;20046;-54
2021/03/15 04:59:54;;;;;;;;;;;;;;;2.88;96.90;98628.19;3554204;27;20047;-55
2021/03/15 05:01:39;;;;;;;176.88;53.22;;;;;;;2.89;97.17;98639.31;3549231;27;20470;-55
2021/03/15 05:03:23;;;;;;;209.75;55.42;;;;;;;2.89;96.99;98635.06;3552676;27;20522;-54
2021/03/15 05:05:07;;;;;;;182.43;52.30;;;;;;;2.90;96.85;98633.34;3552638;27;20047;-55
2021/03/15 05:06:50;;;;;;;191.27;55.28;;;;;;;2.91;97.01;98635.09;3552456;27;20047;-55
2021/03/15 05:08:36;;;;;;;218.13;55.58;;;;;;;2.91;96.84;98635.09;3553668;27;20054;-53
2021/03/15 05:10:18;;;;;;;208.77;54.45;;;;;;;2.93;97.20;98635.16;3557711;27;20077;-50
2021/03/15 05:12:00;;;;;;;187.88;54.05;;;;;;;2.93;97.01;98636.00;3565060;27;20050;-51
2021/03/15 05:13:44;;;;;;;197.20;55.70;;;;;;;2.95;96.92;98638.63;3551439;27;20054;-49
2021/03/15 05:15:27;;;;;;;194.68;54.78;;;;;;;2.95;96.99;98639.47;3551380;27;20042;-49
2021/03/15 05:17:09;;;;;;;177.98;50.58;;;;;;;2.98;96.89;98642.13;3566117;27;20057;-49
2021/03/15 05:18:52;;;;;;;189.57;54.92;;;;;;;2.99;97.00;98646.41;3554604;27;20051;-49
2021/03/15 05:20:35;;;;;;;175.45;51.72;;;;;;;3.01;97.03;98642.22;3553422;27;20086;-49
2021/03/15 05:22:17;;;;;;;203.40;56.42;;;;;;;3.02;97.30;98643.06;3552382;27;20082;-49
2021/03/15 05:23:58;;;;;;;207.55;54.10;;;;;;;3.02;97.12;98637.94;3551781;27;20519;-48
2021/03/15 05:25:43;;;;;;;188.25;53.10;;;;;;;3.03;97.30;98639.66;3551967;27;20086;-49
2021/03/15 05:27:25;;;;;;;192.27;52.05;;;;;;;3.02;97.40;98641.38;3550306;27;20088;-49
2021/03/15 05:29:08;;;;;;;188.18;54.72;;;;;;;3.04;97.06;98643.97;3539170;28;20075;-50
2021/03/15 05:30:51;;;;;;;221.48;61.60;;;;;;;3.04;97.09;98649.97;3548534;27;20066;-49
2021/03/15 05:32:36;;;;;;;233.48;64.15;;;;;;;3.06;97.07;98655.13;3553603;27;20106;-50
2021/03/15 05:34:21;;;;;;;180.45;54.45;;;;;;;3.07;97.29;98652.59;3551460;27;20050;-49
2021/03/15 05:36:07;;;;;;;213.40;60.30;;;;;;;3.07;97.06;98650.06;3552036;27;20530;-49
2021/03/15 05:37:50;;;;;;;198.00;57.47;;;;;;;3.08;97.10;98651.81;3552708;27;20047;-50
2021/03/15 05:39:32;;;;;;;230.43;62.63;;;;;;;3.10;97.30;98651.84;3549771;27;20106;-48
2021/03/15 05:41:15;;;;;;;242.68;60.03;;;;;;;3.13;97.22;98648.47;3552967;27;20055;-50
2021/03/15 05:43:13;;;;;;;234.55;63.33;;;;;;;3.16;97.49;98644.31;3549896;27;20050;-49
2021/03/15 05:45:10;;;;;;;216.00;56.15;;;;;;;3.19;97.32;98648.63;3551210;27;20058;-48
2021/03/15 05:47:28;;;;;;;228.63;62.75;;;;;;;3.22;97.50;98644.47;3566717;27;20046;-48
2021/03/15 05:49:44;;;;;;;193.95;57.00;;;;;;;3.27;97.51;98654.84;3552437;27;20057;-51
2021/03/15 05:52:00;;;;;;;225.20;59.20;;;;;;;3.30;97.28;98654.06;3550939;27;20042;-50
2021/03/15 05:54:05;;;;;;;142.13;38.50;;;;;;;3.31;97.17;98651.50;3551987;27;20056;-50
2021/03/15 05:56:05;;;;;;;108.07;30.57;;;;;;;3.33;97.34;98657.56;3552683;27;20074;-49
2021/03/15 05:58:08;;;;;;;178.20;50.70;;;;;;;3.32;97.23;98655.81;3550699;27;20282;-52
2021/03/15 06:00:15;;;;;;;170.57;49.05;;;;;;;3.34;97.17;98655.88;3549677;27;20039;-49
2021/03/15 06:02:12;;;;;;;182.85;54.75;;;;;;;3.36;96.82;98665.31;3534081;28;20472;-51
2021/03/15 06:04:09;;;;;;;190.63;55.65;;;;;;;3.37;96.95;98668.78;3548748;27;20057;-49
2021/03/15 06:05:56;;;;;;;188.25;55.30;;;;;;;3.37;97.11;98663.66;3549461;27;20043;-50
2021/03/15 06:07:40;;;;;;;231.25;60.88;;;;;;;3.39;96.95;98664.53;3552369;27;20057;-50
2021/03/15 06:09:25;;;;;;;;;;;;;;;3.42;96.94;98662.94;3549615;27;20522;-49
2021/03/15 06:11:11;;;;;;;208.57;56.97;;;;;;;3.45;96.92;98664.69;3552404;27;19974;-49
2021/03/15 06:12:59;;;;;;;227.68;61.40;;;;;;;3.49;97.39;98663.06;3549855;27;20054;-50
2021/03/15 06:14:43;;;;;;;194.90;56.10;;;;;;;3.53;96.95;98667.47;3540322;27;20431;-49
2021/03/15 06:16:26;;;;;;;171.70;49.55;;;;;;;3.54;97.03;98674.31;3552499;27;20082;-50
2021/03/15 06:18:09;;;;;;;111.22;37.72;;;;;;;3.52;97.06;98666.56;3549441;27;20077;-50
2021/03/15 06:19:51;;;;;;;132.23;43.65;;;;;;;3.50;96.93;98667.38;3553033;27;20111;-48
2021/03/15 06:21:33;;;;;;;130.50;43.40;;;;;;;3.49;96.73;98666.53;3549135;27;20046;-49
2021/03/15 06:23:15;;;;;;;140.05;45.42;;;;;;;3.46;96.75;98671.56;3551572;27;20054;-53
2021/03/15 06:24:58;;;;;;;141.50;46.38;;;;;;;3.45;96.73;98667.25;3550222;27;20644;-53
2021/03/15 06:26:40;;;;;;;143.40;50.70;;;;;;;3.47;96.74;98673.28;3550325;27;20051;-54
2021/03/15 06:28:23;;;;;;;155.45;48.67;;;;;;;3.49;96.83;98674.22;3552122;27;20081;-53
2021/03/15 06:30:06;;;;;;;176.15;52.92;;;;;;;3.52;97.09;98669.13;3549077;27;20508;-54
2021/03/15 06:31:50;;;;;;;165.73;54.10;;;;;;;3.55;96.79;98673.50;3552952;27;20505;-50
2021/03/15 06:33:35;;;;;;;158.05;52.05;;;;;;;3.57;96.83;98671.84;3550859;27;20043;-49
2021/03/15 06:35:17;;;;;;;167.68;51.22;;;;;;;3.56;96.74;98668.41;3550606;27;20081;-52
2021/03/15 06:37:00;;;;;;;159.90;49.13;;;;;;;3.56;96.52;98665.84;3551744;27;20051;-48
2021/03/15 06:38:43;;;;;;;157.07;49.30;;;;;;;3.58;96.79;98665.88;3549039;27;20059;-49
2021/03/15 06:40:26;;;;;;;151.85;49.95;;;;;;;3.62;96.88;98675.38;3552752;27;20084;-49
2021/03/15 06:42:09;;;;;;;163.98;50.17;;;;;;;3.65;96.71;98667.78;3549011;27;20046;-50
2021/03/15 06:43:50;;;;;;;163.50;53.10;;;;;;;3.67;96.42;98670.38;3552182;27;20107;-49
2021/03/15 06:45:32;;;;;;;154.05;50.45;;;;;;;3.67;96.76;98675.50;3549406;27;20042;-49
2021/03/15 06:47:14;;;;;;;145.70;49.05;;;;;;;3.68;96.60;98679.78;3550282;27;20039;-49
2021/03/15 06:48:56;;;;;;;155.18;48.88;;;;;;;3.70;96.48;98680.69;3551583;27;20079;-49
2021/03/15 06:50:37;;;;;;;143.20;48.35;;;;;;;3.72;96.36;98676.47;3550189;27;20082;-49
2021/03/15 06:52:19;;;;;;;139.73;48.03;;;;;;;3.76;96.38;98674.03;3552324;27;20050;-49
2021/03/15 06:54:00;;;;;;;147.85;50.97;;;;;;;3.81;96.53;98675.00;3549049;27;20046;-50
2021/03/15 06:55:47;;;;;;;139.45;46.03;;;;;;;3.87;96.44;98666.59;3551677;27;20050;-50
2021/03/15 06:57:29;;;;;;;157.85;49.75;;;;;;;3.92;96.62;98679.53;3550054;27;20047;-49
2021/03/15 06:59:10;;;;;;;162.75;49.83;;;;;;;3.95;96.52;98677.06;3548995;27;20050;-50
2021/03/15 07:01:17;;;;;;;150.50;50.63;;;;;;;3.97;96.14;98681.38;3552143;27;20530;-50
2021/03/15 07:02:59;;;;;;;151.02;46.78;;;;;;;3.98;96.11;98675.44;3548681;27;20054;-49
2021/03/15 07:04:41;;;;;;;153.90;45.75;;;;;;;4.01;96.18;98677.19;3551815;27;20057;-50
2021/03/15 07:06:34;;;;;;;134.82;44.05;;;;;;;4.06;95.93;98669.59;3552214;27;20038;-49
2021/03/15 07:08:18;;;;;;;143.45;47.30;;;;;;;4.09;96.14;98672.22;3551057;27;20193;-50
2021/03/15 07:10:00;;;;;;;135.23;46.70;;;;;;;4.12;96.15;98668.03;3538119;28;20047;-49
2021/03/15 07:11:43;;;;;;;128.93;45.15;;;;;;;4.16;95.91;98666.41;3547527;27;20047;-49
2021/03/15 07:13:25;;;;;;;128.85;44.33;;;;;;;4.19;95.60;98658.78;3550929;27;20091;-49
2021/03/15 07:15:07;;;;;;;140.77;46.00;;;;;;;4.22;95.51;98652.00;3548223;27;20054;-49
2021/03/15 07:16:56;;;;;;;134.65;47.05;;;;;;;4.25;95.56;98656.34;3549914;27;20522;-49
2021/03/15 07:18:38;;;;;;;132.02;48.05;;;;;;;4.31;95.21;98656.47;3551202;27;20187;-49
2021/03/15 07:20:19;;;;;;;122.75;43.05;;;;;;;4.37;95.33;98654.06;3548689;27;20042;-49
2021/03/15 07:22:17;;;;;;;126.10;46.10;;;;;;;4.41;94.97;98650.72;3552354;27;20047;-48
2021/03/15 07:23:59;;;;;;;116.60;43.78;;;;;;;4.45;94.96;98640.53;3551312;27;20427;-52
2021/03/15 07:25:40;;;;;;;128.13;44.72;;;;;;;4.48;94.81;98649.16;3550017;27;20046;-49
2021/03/15 07:27:29;;;;;;;124.90;44.72;;;;;;;4.53;94.40;98649.22;3550460;27;20051;-49
2021/03/15 07:29:12;;;;;;;119.82;44.53;;;;;;;4.57;94.24;98644.22;3548452;27;20123;-50
2021/03/15 07:30:54;;;;;;;111.55;42.78;;;;;;;4.63;94.22;98640.88;3552348;27;20055;-50
2021/03/15 07:32:40;;;;;;;110.07;41.70;;;;;;;4.68;93.93;98644.41;3550679;27;20081;-54
2021/03/15 07:34:21;;;;;;;109.45;42.40;;;;;;;4.73;93.28;98650.53;3551422;27;20059;-55
2021/03/15 07:36:10;;;;;;;100.95;40.03;;;;;;;4.79;93.26;98657.47;3549589;27;20047;-54
2021/03/15 07:37:51;;;;;;;102.22;39.97;;;;;;;4.84;92.95;98657.59;3549960;27;20044;-54
2021/03/15 07:39:51;;;;;;;111.07;41.85;;;;;;;4.86;92.39;98653.34;3551862;27;20461;-55
2021/03/15 07:41:36;;;;;;;95.82;37.92;;;;;;;4.90;92.49;98653.44;3550682;27;20042;-53
2021/03/15 07:43:27;;;;;;;97.38;40.45;;;;;;;4.95;92.29;98651.84;3551184;27;20602;-55
2021/03/15 07:45:10;;;;;;;92.05;38.45;;;;;;;5.01;92.08;98658.78;3550072;27;20423;-54
2021/03/15 07:46:53;;;;;;;92.80;38.42;;;;;;;5.03;91.84;98657.09;3548997;27;20054;-54
2021/03/15 07:48:36;;;;;;;98.93;38.70;;;;;;;5.04;91.68;98660.53;3551992;27;20050;-54
2021/03/15 07:50:19;;;;;;;101.85;41.50;;;;;;;5.03;90.96;98658.81;3548514;27;20054;-53
2021/03/15 07:52:03;;;;;;;93.70;38.95;;;;;;;5.01;90.79;98657.91;3551413;27;20411;-53
2021/03/15 07:53:46;;;;;;;95.97;39.40;;;;;;;5.00;91.03;98649.34;3549109;27;20050;-55
2021/03/15 07:55:39;;;;;;;97.13;39.80;;;;;;;5.02;91.01;98645.09;3549814;27;20115;-51
2021/03/15 07:57:22;;;;;;;96.95;41.03;;;;;;;5.04;90.54;98653.72;3564168;27;20075;-51
2021/03/15 07:59:04;;;;;;;101.70;41.50;;;;;;;5.08;90.80;98642.66;3552949;27;20427;-52
2021/03/15 08:00:46;;;;;;;101.22;39.88;;;;;;;5.11;90.90;98641.81;3551941;27;20451;-50
2021/03/15 08:02:29;;;;;;;106.05;42.17;;;;;;;5.17;91.04;98645.38;3548469;27;20141;-49
2021/03/15 08:04:11;;;;;;;108.65;43.53;;;;;;;5.23;90.63;98648.91;3549793;27;20042;-51
2021/03/15 08:05:54;;;;;;;96.95;40.08;;;;;;;5.28;90.23;98650.72;3550492;27;20084;-53